sensor_id;sensor_type;location;lat;lon;timestamp;P1;durP1;ratioP1;P2;durP2;ratioP2
73550;SDS011;61816;53.582;10.096;2023-09-30T00:01:08;32.22;;;6.15;;
73550;SDS011;61816;53.582;10.096;2023-09-30T00:03:35;28.33;;;6.97;;
73550;SDS011;61816;53.582;10.096;2023-09-30T00:06:00;44.42;;;7.15;;
73550;SDS011;61816;53.582;10.096;2023-09-30T00:08:26;29.80;;;7.32;;
73550;SDS011;61816;53.582;10.096;2023-09-30T00:10:52;41.45;;;6.80;;
73550;SDS011;61816;53.582;10.096;2023-09-30T00:13:19;41.63;;;6.38;;
73550;SDS011;61816;53.582;10.096;2023-09-30T00:15:45;32.08;;;6.53;;
73550;SDS011;61816;53.582;10.096;2023-09-30T00:18:10;32.10;;;8.18;;
73550;SDS011;61816;53.582;10.096;2023-09-30T00:20:36;31.17;;;6.15;;
73550;SDS011;61816;53.582;10.096;2023-09-30T00:23:01;28.92;;;6.22;;
73550;SDS011;61816;53.582;10.096;2023-09-30T00:25:27;27.48;;;6.38;;
73550;SDS011;61816;53.582;10.096;2023-09-30T00:27:53;34.42;;;6.65;;
73550;SDS011;61816;53.582;10.096;2023-09-30T00:30:18;35.33;;;5.20;;
73550;SDS011;61816;53.582;10.096;2023-09-30T00:32:44;37.05;;;6.32;;
73550;SDS011;61816;53.582;10.096;2023-09-30T00:35:12;42.33;;;6.53;;
73550;SDS011;61816;53.582;10.096;2023-09-30T00:37:38;38.90;;;6.43;;
73550;SDS011;61816;53.582;10.096;2023-09-30T00:40:04;32.63;;;6.72;;
73550;SDS011;61816;53.582;10.096;2023-09-30T00:42:30;41.00;;;6.85;;
73550;SDS011;61816;53.582;10.096;2023-09-30T00:44:56;33.80;;;6.97;;
73550;SDS011;61816;53.582;10.096;2023-09-30T00:47:22;34.38;;;6.25;;
73550;SDS011;61816;53.582;10.096;2023-09-30T00:49:48;39.00;;;7.22;;
73550;SDS011;61816;53.582;10.096;2023-09-30T00:52:15;37.47;;;7.25;;
73550;SDS011;61816;53.582;10.096;2023-09-30T00:54:42;29.08;;;5.75;;
73550;SDS011;61816;53.582;10.096;2023-09-30T00:57:08;35.00;;;6.90;;
73550;SDS011;61816;53.582;10.096;2023-09-30T00:59:35;39.88;;;7.00;;
73550;SDS011;61816;53.582;10.096;2023-09-30T01:02:01;40.53;;;6.47;;
73550;SDS011;61816;53.582;10.096;2023-09-30T01:04:26;34.70;;;6.03;;
73550;SDS011;61816;53.582;10.096;2023-09-30T01:06:53;36.05;;;6.68;;
73550;SDS011;61816;53.582;10.096;2023-09-30T01:09:18;32.05;;;5.90;;
73550;SDS011;61816;53.582;10.096;2023-09-30T01:11:45;25.58;;;5.82;;
73550;SDS011;61816;53.582;10.096;2023-09-30T01:14:23;36.97;;;6.65;;
73550;SDS011;61816;53.582;10.096;2023-09-30T01:16:53;31.40;;;6.22;;
73550;SDS011;61816;53.582;10.096;2023-09-30T01:19:19;32.75;;;6.55;;
73550;SDS011;61816;53.582;10.096;2023-09-30T01:21:44;25.90;;;5.40;;
73550;SDS011;61816;53.582;10.096;2023-09-30T01:24:14;34.95;;;6.25;;
73550;SDS011;61816;53.582;10.096;2023-09-30T01:26:40;39.45;;;6.05;;
73550;SDS011;61816;53.582;10.096;2023-09-30T01:29:05;39.10;;;6.70;;
73550;SDS011;61816;53.582;10.096;2023-09-30T01:31:30;37.75;;;7.10;;
73550;SDS011;61816;53.582;10.096;2023-09-30T01:33:56;25.00;;;5.72;;
73550;SDS011;61816;53.582;10.096;2023-09-30T01:36:21;34.60;;;5.53;;
73550;SDS011;61816;53.582;10.096;2023-09-30T01:38:47;37.42;;;6.65;;
73550;SDS011;61816;53.582;10.096;2023-09-30T01:41:12;40.70;;;6.47;;
73550;SDS011;61816;53.582;10.096;2023-09-30T01:43:37;33.00;;;6.93;;
73550;SDS011;61816;53.582;10.096;2023-09-30T01:46:03;38.47;;;6.00;;
73550;SDS011;61816;53.582;10.096;2023-09-30T01:48:30;33.30;;;6.00;;
73550;SDS011;61816;53.582;10.096;2023-09-30T01:50:55;40.28;;;7.55;;
73550;SDS011;61816;53.582;10.096;2023-09-30T01:53:21;31.38;;;5.97;;
73550;SDS011;61816;53.582;10.096;2023-09-30T01:55:46;38.45;;;6.95;;
73550;SDS011;61816;53.582;10.096;2023-09-30T01:58:13;29.20;;;5.07;;
73550;SDS011;61816;53.582;10.096;2023-09-30T02:00:38;26.35;;;6.15;;
73550;SDS011;61816;53.582;10.096;2023-09-30T02:03:03;32.92;;;7.13;;
73550;SDS011;61816;53.582;10.096;2023-09-30T02:05:29;32.20;;;6.80;;
73550;SDS011;61816;53.582;10.096;2023-09-30T02:07:54;37.15;;;6.28;;
73550;SDS011;61816;53.582;10.096;2023-09-30T02:10:19;30.52;;;5.68;;
73550;SDS011;61816;53.582;10.096;2023-09-30T02:12:45;38.90;;;6.13;;
73550;SDS011;61816;53.582;10.096;2023-09-30T02:15:12;39.15;;;7.85;;
73550;SDS011;61816;53.582;10.096;2023-09-30T02:17:38;29.92;;;5.50;;
73550;SDS011;61816;53.582;10.096;2023-09-30T02:20:03;32.33;;;5.43;;
73550;SDS011;61816;53.582;10.096;2023-09-30T02:22:37;29.33;;;5.53;;
73550;SDS011;61816;53.582;10.096;2023-09-30T02:25:03;30.23;;;6.97;;
73550;SDS011;61816;53.582;10.096;2023-09-30T02:27:32;30.80;;;5.95;;
73550;SDS011;61816;53.582;10.096;2023-09-30T02:29:58;31.85;;;6.65;;
73550;SDS011;61816;53.582;10.096;2023-09-30T02:32:23;34.78;;;6.75;;
73550;SDS011;61816;53.582;10.096;2023-09-30T02:34:49;30.33;;;6.22;;
73550;SDS011;61816;53.582;10.096;2023-09-30T02:37:15;38.65;;;8.73;;
73550;SDS011;61816;53.582;10.096;2023-09-30T02:39:41;39.30;;;6.03;;
73550;SDS011;61816;53.582;10.096;2023-09-30T02:42:06;35.92;;;7.05;;
73550;SDS011;61816;53.582;10.096;2023-09-30T02:44:31;36.95;;;7.00;;
73550;SDS011;61816;53.582;10.096;2023-09-30T02:46:57;32.25;;;7.03;;
73550;SDS011;61816;53.582;10.096;2023-09-30T02:49:22;40.95;;;6.30;;
73550;SDS011;61816;53.582;10.096;2023-09-30T02:51:48;27.88;;;6.03;;
73550;SDS011;61816;53.582;10.096;2023-09-30T02:54:14;38.97;;;7.35;;
73550;SDS011;61816;53.582;10.096;2023-09-30T02:56:41;42.05;;;7.43;;
73550;SDS011;61816;53.582;10.096;2023-09-30T02:59:06;37.47;;;6.78;;
73550;SDS011;61816;53.582;10.096;2023-09-30T03:01:32;29.20;;;6.53;;
73550;SDS011;61816;53.582;10.096;2023-09-30T03:03:58;39.70;;;7.65;;
73550;SDS011;61816;53.582;10.096;2023-09-30T03:06:24;39.08;;;7.57;;
73550;SDS011;61816;53.582;10.096;2023-09-30T03:08:49;38.65;;;6.90;;
73550;SDS011;61816;53.582;10.096;2023-09-30T03:11:14;40.83;;;6.47;;
73550;SDS011;61816;53.582;10.096;2023-09-30T03:13:40;39.83;;;6.63;;
73550;SDS011;61816;53.582;10.096;2023-09-30T03:16:07;49.90;;;7.75;;
73550;SDS011;61816;53.582;10.096;2023-09-30T03:18:33;38.00;;;6.82;;
73550;SDS011;61816;53.582;10.096;2023-09-30T03:20:59;39.35;;;7.35;;
73550;SDS011;61816;53.582;10.096;2023-09-30T03:23:26;47.45;;;7.28;;
73550;SDS011;61816;53.582;10.096;2023-09-30T03:25:58;48.38;;;7.70;;
73550;SDS011;61816;53.582;10.096;2023-09-30T03:28:24;46.00;;;6.65;;
73550;SDS011;61816;53.582;10.096;2023-09-30T03:30:50;43.08;;;6.65;;
73550;SDS011;61816;53.582;10.096;2023-09-30T03:33:15;31.70;;;6.93;;
73550;SDS011;61816;53.582;10.096;2023-09-30T03:35:42;36.30;;;7.18;;
73550;SDS011;61816;53.582;10.096;2023-09-30T03:38:07;34.63;;;7.45;;
73550;SDS011;61816;53.582;10.096;2023-09-30T03:40:35;39.95;;;7.50;;
73550;SDS011;61816;53.582;10.096;2023-09-30T03:43:03;51.90;;;8.15;;
73550;SDS011;61816;53.582;10.096;2023-09-30T03:45:30;46.55;;;7.40;;
73550;SDS011;61816;53.582;10.096;2023-09-30T03:47:57;32.88;;;6.90;;
73550;SDS011;61816;53.582;10.096;2023-09-30T03:50:23;30.48;;;6.25;;
73550;SDS011;61816;53.582;10.096;2023-09-30T03:52:49;35.65;;;7.05;;
73550;SDS011;61816;53.582;10.096;2023-09-30T03:55:18;39.88;;;7.43;;
73550;SDS011;61816;53.582;10.096;2023-09-30T03:57:45;41.25;;;7.15;;
73550;SDS011;61816;53.582;10.096;2023-09-30T04:00:13;41.45;;;7.80;;
73550;SDS011;61816;53.582;10.096;2023-09-30T04:02:43;37.50;;;7.85;;
73550;SDS011;61816;53.582;10.096;2023-09-30T04:05:09;33.78;;;6.47;;
73550;SDS011;61816;53.582;10.096;2023-09-30T04:07:39;35.45;;;7.40;;
73550;SDS011;61816;53.582;10.096;2023-09-30T04:10:04;36.78;;;7.20;;
73550;SDS011;61816;53.582;10.096;2023-09-30T04:12:30;42.70;;;8.07;;
73550;SDS011;61816;53.582;10.096;2023-09-30T04:14:57;31.50;;;7.97;;
73550;SDS011;61816;53.582;10.096;2023-09-30T04:17:23;36.33;;;7.55;;
73550;SDS011;61816;53.582;10.096;2023-09-30T04:19:49;43.60;;;8.27;;
73550;SDS011;61816;53.582;10.096;2023-09-30T04:22:16;36.58;;;8.15;;
73550;SDS011;61816;53.582;10.096;2023-09-30T04:24:42;37.90;;;7.30;;
73550;SDS011;61816;53.582;10.096;2023-09-30T04:27:07;41.42;;;7.45;;
73550;SDS011;61816;53.582;10.096;2023-09-30T04:29:33;34.17;;;7.55;;
73550;SDS011;61816;53.582;10.096;2023-09-30T04:31:59;30.92;;;8.18;;
73550;SDS011;61816;53.582;10.096;2023-09-30T04:34:25;30.98;;;6.70;;
73550;SDS011;61816;53.582;10.096;2023-09-30T04:36:52;45.50;;;8.10;;
73550;SDS011;61816;53.582;10.096;2023-09-30T04:39:18;35.08;;;7.38;;
73550;SDS011;61816;53.582;10.096;2023-09-30T04:41:43;33.45;;;7.07;;
73550;SDS011;61816;53.582;10.096;2023-09-30T04:44:09;35.75;;;7.72;;
73550;SDS011;61816;53.582;10.096;2023-09-30T04:46:38;41.05;;;7.88;;
73550;SDS011;61816;53.582;10.096;2023-09-30T04:49:11;53.67;;;9.27;;
73550;SDS011;61816;53.582;10.096;2023-09-30T04:51:39;44.35;;;11.65;;
73550;SDS011;61816;53.582;10.096;2023-09-30T04:54:06;36.78;;;6.97;;
73550;SDS011;61816;53.582;10.096;2023-09-30T04:56:34;29.65;;;6.72;;
73550;SDS011;61816;53.582;10.096;2023-09-30T04:59:00;47.88;;;9.48;;
73550;SDS011;61816;53.582;10.096;2023-09-30T05:01:26;35.10;;;7.55;;
73550;SDS011;61816;53.582;10.096;2023-09-30T05:03:53;25.40;;;6.53;;
73550;SDS011;61816;53.582;10.096;2023-09-30T05:06:18;37.20;;;7.75;;
73550;SDS011;61816;53.582;10.096;2023-09-30T05:08:44;40.25;;;8.77;;
73550;SDS011;61816;53.582;10.096;2023-09-30T05:11:09;47.22;;;7.55;;
73550;SDS011;61816;53.582;10.096;2023-09-30T05:13:35;33.80;;;8.13;;
73550;SDS011;61816;53.582;10.096;2023-09-30T05:16:03;48.15;;;9.32;;
73550;SDS011;61816;53.582;10.096;2023-09-30T05:18:29;34.22;;;8.27;;
73550;SDS011;61816;53.582;10.096;2023-09-30T05:20:55;40.50;;;7.38;;
73550;SDS011;61816;53.582;10.096;2023-09-30T05:23:20;48.03;;;8.27;;
73550;SDS011;61816;53.582;10.096;2023-09-30T05:25:46;41.13;;;8.88;;
73550;SDS011;61816;53.582;10.096;2023-09-30T05:28:11;41.13;;;9.02;;
73550;SDS011;61816;53.582;10.096;2023-09-30T05:30:38;33.60;;;8.35;;
73550;SDS011;61816;53.582;10.096;2023-09-30T05:33:05;46.40;;;7.90;;
73550;SDS011;61816;53.582;10.096;2023-09-30T05:35:31;45.90;;;8.23;;
73550;SDS011;61816;53.582;10.096;2023-09-30T05:37:57;37.42;;;7.70;;
73550;SDS011;61816;53.582;10.096;2023-09-30T05:40:23;35.47;;;6.97;;
73550;SDS011;61816;53.582;10.096;2023-09-30T05:42:51;38.35;;;8.57;;
73550;SDS011;61816;53.582;10.096;2023-09-30T05:45:21;35.40;;;7.38;;
73550;SDS011;61816;53.582;10.096;2023-09-30T05:47:48;37.33;;;8.00;;
73550;SDS011;61816;53.582;10.096;2023-09-30T05:50:14;47.60;;;7.68;;
73550;SDS011;61816;53.582;10.096;2023-09-30T05:52:44;39.33;;;7.85;;
73550;SDS011;61816;53.582;10.096;2023-09-30T05:55:10;39.13;;;6.60;;
73550;SDS011;61816;53.582;10.096;2023-09-30T05:57:36;36.00;;;6.72;;
73550;SDS011;61816;53.582;10.096;2023-09-30T06:00:02;31.98;;;7.25;;
73550;SDS011;61816;53.582;10.096;2023-09-30T06:02:53;27.33;;;7.63;;
73550;SDS011;61816;53.582;10.096;2023-09-30T06:05:20;45.25;;;7.43;;
73550;SDS011;61816;53.582;10.096;2023-09-30T06:07:47;39.33;;;8.50;;
73550;SDS011;61816;53.582;10.096;2023-09-30T06:10:13;51.22;;;7.95;;
73550;SDS011;61816;53.582;10.096;2023-09-30T06:12:43;36.28;;;6.70;;
73550;SDS011;61816;53.582;10.096;2023-09-30T06:15:10;30.27;;;7.40;;
73550;SDS011;61816;53.582;10.096;2023-09-30T06:17:35;35.95;;;7.95;;
73550;SDS011;61816;53.582;10.096;2023-09-30T06:20:03;34.97;;;6.93;;
73550;SDS011;61816;53.582;10.096;2023-09-30T06:22:33;39.90;;;7.18;;
73550;SDS011;61816;53.582;10.096;2023-09-30T06:24:59;34.83;;;7.05;;
73550;SDS011;61816;53.582;10.096;2023-09-30T06:27:24;36.80;;;7.00;;
73550;SDS011;61816;53.582;10.096;2023-09-30T06:29:49;30.58;;;6.70;;
73550;SDS011;61816;53.582;10.096;2023-09-30T06:32:15;38.90;;;8.10;;
73550;SDS011;61816;53.582;10.096;2023-09-30T06:34:40;34.85;;;7.03;;
73550;SDS011;61816;53.582;10.096;2023-09-30T06:37:06;35.50;;;6.93;;
73550;SDS011;61816;53.582;10.096;2023-09-30T06:39:31;43.22;;;7.88;;
73550;SDS011;61816;53.582;10.096;2023-09-30T06:41:57;41.30;;;7.05;;
73550;SDS011;61816;53.582;10.096;2023-09-30T06:44:22;41.00;;;7.82;;
73550;SDS011;61816;53.582;10.096;2023-09-30T06:46:50;35.75;;;7.47;;
73550;SDS011;61816;53.582;10.096;2023-09-30T06:49:16;33.30;;;6.85;;
73550;SDS011;61816;53.582;10.096;2023-09-30T06:51:41;31.05;;;6.72;;
73550;SDS011;61816;53.582;10.096;2023-09-30T06:54:07;35.03;;;7.00;;
73550;SDS011;61816;53.582;10.096;2023-09-30T06:56:33;32.53;;;7.18;;
73550;SDS011;61816;53.582;10.096;2023-09-30T06:58:58;34.03;;;7.10;;
73550;SDS011;61816;53.582;10.096;2023-09-30T07:01:24;39.45;;;7.55;;
73550;SDS011;61816;53.582;10.096;2023-09-30T07:03:50;33.40;;;7.20;;
73550;SDS011;61816;53.582;10.096;2023-09-30T07:06:23;36.33;;;6.93;;
73550;SDS011;61816;53.582;10.096;2023-09-30T07:08:49;37.70;;;7.78;;
73550;SDS011;61816;53.582;10.096;2023-09-30T07:11:14;36.35;;;6.68;;
73550;SDS011;61816;53.582;10.096;2023-09-30T07:13:40;35.83;;;6.43;;
73550;SDS011;61816;53.582;10.096;2023-09-30T07:16:05;51.22;;;7.90;;
73550;SDS011;61816;53.582;10.096;2023-09-30T07:18:31;50.05;;;8.32;;
73550;SDS011;61816;53.582;10.096;2023-09-30T07:20:56;36.25;;;7.38;;
73550;SDS011;61816;53.582;10.096;2023-09-30T07:23:22;34.97;;;7.13;;
73550;SDS011;61816;53.582;10.096;2023-09-30T07:25:47;32.65;;;6.72;;
73550;SDS011;61816;53.582;10.096;2023-09-30T07:28:13;23.70;;;5.53;;
73550;SDS011;61816;53.582;10.096;2023-09-30T07:30:39;31.98;;;6.45;;
73550;SDS011;61816;53.582;10.096;2023-09-30T07:33:05;41.03;;;6.13;;
73550;SDS011;61816;53.582;10.096;2023-09-30T07:35:31;32.10;;;6.85;;
73550;SDS011;61816;53.582;10.096;2023-09-30T07:37:57;30.73;;;6.10;;
73550;SDS011;61816;53.582;10.096;2023-09-30T07:40:23;30.77;;;6.65;;
73550;SDS011;61816;53.582;10.096;2023-09-30T07:42:48;34.80;;;7.05;;
73550;SDS011;61816;53.582;10.096;2023-09-30T07:45:15;31.75;;;5.78;;
73550;SDS011;61816;53.582;10.096;2023-09-30T07:47:43;26.17;;;5.28;;
73550;SDS011;61816;53.582;10.096;2023-09-30T07:50:09;29.88;;;7.00;;
73550;SDS011;61816;53.582;10.096;2023-09-30T07:52:35;37.33;;;6.75;;
73550;SDS011;61816;53.582;10.096;2023-09-30T07:55:01;34.38;;;6.60;;
73550;SDS011;61816;53.582;10.096;2023-09-30T07:57:26;21.10;;;6.13;;
73550;SDS011;61816;53.582;10.096;2023-09-30T07:59:51;26.63;;;5.70;;
73550;SDS011;61816;53.582;10.096;2023-09-30T08:02:17;27.05;;;5.65;;
73550;SDS011;61816;53.582;10.096;2023-09-30T08:04:46;29.75;;;5.85;;
73550;SDS011;61816;53.582;10.096;2023-09-30T08:07:12;38.13;;;6.22;;
73550;SDS011;61816;53.582;10.096;2023-09-30T08:09:38;27.30;;;5.47;;
73550;SDS011;61816;53.582;10.096;2023-09-30T08:12:04;26.65;;;5.03;;
73550;SDS011;61816;53.582;10.096;2023-09-30T08:14:30;24.73;;;4.65;;
73550;SDS011;61816;53.582;10.096;2023-09-30T08:16:55;35.65;;;6.32;;
73550;SDS011;61816;53.582;10.096;2023-09-30T08:19:21;30.77;;;5.50;;
73550;SDS011;61816;53.582;10.096;2023-09-30T08:21:47;24.98;;;6.00;;
73550;SDS011;61816;53.582;10.096;2023-09-30T08:24:12;40.53;;;5.60;;
73550;SDS011;61816;53.582;10.096;2023-09-30T08:26:38;32.25;;;5.13;;
73550;SDS011;61816;53.582;10.096;2023-09-30T08:29:03;28.95;;;5.10;;
73550;SDS011;61816;53.582;10.096;2023-09-30T08:31:29;30.13;;;5.05;;
73550;SDS011;61816;53.582;10.096;2023-09-30T08:33:55;24.30;;;5.30;;
73550;SDS011;61816;53.582;10.096;2023-09-30T08:36:20;33.22;;;5.70;;
73550;SDS011;61816;53.582;10.096;2023-09-30T08:38:46;29.10;;;5.30;;
73550;SDS011;61816;53.582;10.096;2023-09-30T08:41:11;22.55;;;4.97;;
73550;SDS011;61816;53.582;10.096;2023-09-30T08:44:02;19.35;;;4.20;;
73550;SDS011;61816;53.582;10.096;2023-09-30T08:46:32;26.75;;;5.22;;
73550;SDS011;61816;53.582;10.096;2023-09-30T08:49:03;26.30;;;5.05;;
73550;SDS011;61816;53.582;10.096;2023-09-30T08:53:57;27.45;;;4.60;;
73550;SDS011;61816;53.582;10.096;2023-09-30T08:56:24;30.35;;;6.20;;
73550;SDS011;61816;53.582;10.096;2023-09-30T08:58:56;29.40;;;5.30;;
73550;SDS011;61816;53.582;10.096;2023-09-30T09:01:24;20.80;;;4.38;;
73550;SDS011;61816;53.582;10.096;2023-09-30T09:03:50;29.40;;;5.72;;
73550;SDS011;61816;53.582;10.096;2023-09-30T09:06:21;23.88;;;4.53;;
73550;SDS011;61816;53.582;10.096;2023-09-30T09:08:47;33.15;;;5.75;;
73550;SDS011;61816;53.582;10.096;2023-09-30T09:11:13;27.02;;;4.38;;
73550;SDS011;61816;53.582;10.096;2023-09-30T09:13:45;27.05;;;5.15;;
73550;SDS011;61816;53.582;10.096;2023-09-30T09:16:21;24.98;;;4.28;;
73550;SDS011;61816;53.582;10.096;2023-09-30T09:18:48;21.67;;;4.30;;
73550;SDS011;61816;53.582;10.096;2023-09-30T09:21:15;28.55;;;4.85;;
73550;SDS011;61816;53.582;10.096;2023-09-30T09:23:43;24.48;;;4.82;;
73550;SDS011;61816;53.582;10.096;2023-09-30T09:26:11;25.45;;;5.20;;
73550;SDS011;61816;53.582;10.096;2023-09-30T09:29:00;21.08;;;3.70;;
73550;SDS011;61816;53.582;10.096;2023-09-30T09:31:27;25.92;;;4.50;;
73550;SDS011;61816;53.582;10.096;2023-09-30T09:34:02;20.73;;;4.22;;
73550;SDS011;61816;53.582;10.096;2023-09-30T09:36:38;31.55;;;3.97;;
73550;SDS011;61816;53.582;10.096;2023-09-30T09:39:05;33.78;;;4.65;;
73550;SDS011;61816;53.582;10.096;2023-09-30T09:41:31;24.35;;;4.63;;
73550;SDS011;61816;53.582;10.096;2023-09-30T09:43:57;26.63;;;4.88;;
73550;SDS011;61816;53.582;10.096;2023-09-30T09:46:24;37.45;;;4.90;;
73550;SDS011;61816;53.582;10.096;2023-09-30T09:48:51;23.33;;;4.53;;
73550;SDS011;61816;53.582;10.096;2023-09-30T09:51:18;33.90;;;4.60;;
73550;SDS011;61816;53.582;10.096;2023-09-30T09:53:46;32.60;;;4.80;;
73550;SDS011;61816;53.582;10.096;2023-09-30T09:56:14;22.95;;;4.10;;
73550;SDS011;61816;53.582;10.096;2023-09-30T09:58:40;24.50;;;5.47;;
73550;SDS011;61816;53.582;10.096;2023-09-30T10:01:09;28.95;;;4.65;;
73550;SDS011;61816;53.582;10.096;2023-09-30T10:03:35;26.38;;;4.93;;
73550;SDS011;61816;53.582;10.096;2023-09-30T10:06:02;31.13;;;4.53;;
73550;SDS011;61816;53.582;10.096;2023-09-30T10:08:37;25.98;;;5.05;;
73550;SDS011;61816;53.582;10.096;2023-09-30T10:11:06;24.15;;;4.75;;
73550;SDS011;61816;53.582;10.096;2023-09-30T10:19:20;28.85;;;4.55;;
73550;SDS011;61816;53.582;10.096;2023-09-30T10:24:50;19.75;;;3.83;;
73550;SDS011;61816;53.582;10.096;2023-09-30T10:35:19;16.25;;;2.70;;
73550;SDS011;61816;53.582;10.096;2023-09-30T10:37:45;22.75;;;3.65;;
73550;SDS011;61816;53.582;10.096;2023-09-30T10:43:06;17.13;;;3.60;;
73550;SDS011;61816;53.582;10.096;2023-09-30T10:45:56;21.88;;;3.83;;
73550;SDS011;61816;53.582;10.096;2023-09-30T10:50:50;24.08;;;3.70;;
73550;SDS011;61816;53.582;10.096;2023-09-30T10:53:26;20.33;;;3.42;;
73550;SDS011;61816;53.582;10.096;2023-09-30T10:55:58;26.15;;;3.75;;
73550;SDS011;61816;53.582;10.096;2023-09-30T10:58:43;18.90;;;3.63;;
73550;SDS011;61816;53.582;10.096;2023-09-30T11:01:10;19.90;;;3.65;;
73550;SDS011;61816;53.582;10.096;2023-09-30T11:03:38;20.05;;;3.60;;
73550;SDS011;61816;53.582;10.096;2023-09-30T11:06:03;14.98;;;3.45;;
73550;SDS011;61816;53.582;10.096;2023-09-30T11:08:29;18.70;;;4.50;;
73550;SDS011;61816;53.582;10.096;2023-09-30T11:10:55;18.15;;;3.67;;
73550;SDS011;61816;53.582;10.096;2023-09-30T11:13:21;17.27;;;3.78;;
73550;SDS011;61816;53.582;10.096;2023-09-30T11:15:47;16.38;;;3.85;;
73550;SDS011;61816;53.582;10.096;2023-09-30T11:18:24;13.75;;;3.40;;
73550;SDS011;61816;53.582;10.096;2023-09-30T11:20:49;17.73;;;4.32;;
73550;SDS011;61816;53.582;10.096;2023-09-30T11:23:15;20.08;;;3.72;;
73550;SDS011;61816;53.582;10.096;2023-09-30T11:25:40;17.48;;;3.08;;
73550;SDS011;61816;53.582;10.096;2023-09-30T11:28:24;14.02;;;3.00;;
73550;SDS011;61816;53.582;10.096;2023-09-30T11:31:01;19.10;;;3.40;;
73550;SDS011;61816;53.582;10.096;2023-09-30T11:33:28;15.98;;;3.72;;
73550;SDS011;61816;53.582;10.096;2023-09-30T11:36:02;17.98;;;3.75;;
73550;SDS011;61816;53.582;10.096;2023-09-30T11:38:34;16.80;;;3.50;;
73550;SDS011;61816;53.582;10.096;2023-09-30T11:41:04;15.13;;;3.15;;
73550;SDS011;61816;53.582;10.096;2023-09-30T11:43:32;11.30;;;3.13;;
73550;SDS011;61816;53.582;10.096;2023-09-30T11:46:05;16.48;;;3.58;;
73550;SDS011;61816;53.582;10.096;2023-09-30T11:48:35;18.85;;;3.95;;
73550;SDS011;61816;53.582;10.096;2023-09-30T11:51:02;15.75;;;3.08;;
73550;SDS011;61816;53.582;10.096;2023-09-30T11:53:29;16.77;;;3.17;;
73550;SDS011;61816;53.582;10.096;2023-09-30T11:55:59;17.83;;;3.00;;
73550;SDS011;61816;53.582;10.096;2023-09-30T11:58:27;17.13;;;3.78;;
73550;SDS011;61816;53.582;10.096;2023-09-30T12:00:54;16.65;;;3.20;;
73550;SDS011;61816;53.582;10.096;2023-09-30T12:03:20;17.95;;;3.75;;
73550;SDS011;61816;53.582;10.096;2023-09-30T12:05:46;15.07;;;3.55;;
73550;SDS011;61816;53.582;10.096;2023-09-30T12:08:13;16.40;;;2.97;;
73550;SDS011;61816;53.582;10.096;2023-09-30T12:10:39;21.83;;;2.80;;
73550;SDS011;61816;53.582;10.096;2023-09-30T12:13:05;15.90;;;3.22;;
73550;SDS011;61816;53.582;10.096;2023-09-30T12:15:30;14.82;;;3.97;;
73550;SDS011;61816;53.582;10.096;2023-09-30T12:17:56;12.73;;;2.80;;
73550;SDS011;61816;53.582;10.096;2023-09-30T12:20:22;11.90;;;2.58;;
73550;SDS011;61816;53.582;10.096;2023-09-30T12:22:48;15.90;;;3.08;;
73550;SDS011;61816;53.582;10.096;2023-09-30T12:25:14;14.85;;;2.95;;
73550;SDS011;61816;53.582;10.096;2023-09-30T12:27:40;11.70;;;2.72;;
73550;SDS011;61816;53.582;10.096;2023-09-30T12:30:05;12.55;;;3.28;;
73550;SDS011;61816;53.582;10.096;2023-09-30T12:32:32;19.00;;;3.35;;
73550;SDS011;61816;53.582;10.096;2023-09-30T12:35:00;17.00;;;2.78;;
73550;SDS011;61816;53.582;10.096;2023-09-30T12:37:27;22.75;;;3.60;;
73550;SDS011;61816;53.582;10.096;2023-09-30T12:39:58;14.75;;;2.58;;
73550;SDS011;61816;53.582;10.096;2023-09-30T12:42:24;11.38;;;2.92;;
73550;SDS011;61816;53.582;10.096;2023-09-30T12:44:49;17.33;;;3.63;;
73550;SDS011;61816;53.582;10.096;2023-09-30T12:47:15;15.77;;;3.00;;
73550;SDS011;61816;53.582;10.096;2023-09-30T12:49:41;19.65;;;3.53;;
73550;SDS011;61816;53.582;10.096;2023-09-30T12:52:07;17.15;;;3.00;;
73550;SDS011;61816;53.582;10.096;2023-09-30T12:54:32;22.75;;;4.03;;
73550;SDS011;61816;53.582;10.096;2023-09-30T12:56:59;18.00;;;3.35;;
73550;SDS011;61816;53.582;10.096;2023-09-30T12:59:24;16.52;;;3.38;;
73550;SDS011;61816;53.582;10.096;2023-09-30T13:01:51;16.70;;;3.20;;
73550;SDS011;61816;53.582;10.096;2023-09-30T13:04:16;13.00;;;3.55;;
73550;SDS011;61816;53.582;10.096;2023-09-30T13:06:43;12.85;;;3.60;;
73550;SDS011;61816;53.582;10.096;2023-09-30T13:09:10;23.27;;;3.80;;
73550;SDS011;61816;53.582;10.096;2023-09-30T13:11:36;12.85;;;2.90;;
73550;SDS011;61816;53.582;10.096;2023-09-30T13:14:02;19.25;;;3.20;;
73550;SDS011;61816;53.582;10.096;2023-09-30T13:16:28;14.23;;;2.65;;
73550;SDS011;61816;53.582;10.096;2023-09-30T13:18:53;21.88;;;3.08;;
73550;SDS011;61816;53.582;10.096;2023-09-30T13:21:19;8.82;;;2.88;;
73550;SDS011;61816;53.582;10.096;2023-09-30T13:23:44;19.13;;;3.50;;
73550;SDS011;61816;53.582;10.096;2023-09-30T13:26:10;22.23;;;2.95;;
73550;SDS011;61816;53.582;10.096;2023-09-30T13:28:36;19.70;;;3.90;;
73550;SDS011;61816;53.582;10.096;2023-09-30T13:31:01;17.25;;;3.03;;
73550;SDS011;61816;53.582;10.096;2023-09-30T13:33:27;14.63;;;3.33;;
73550;SDS011;61816;53.582;10.096;2023-09-30T13:35:52;20.00;;;3.03;;
73550;SDS011;61816;53.582;10.096;2023-09-30T13:38:19;23.67;;;3.53;;
73550;SDS011;61816;53.582;10.096;2023-09-30T13:40:45;13.95;;;3.17;;
73550;SDS011;61816;53.582;10.096;2023-09-30T13:43:11;17.55;;;2.50;;
73550;SDS011;61816;53.582;10.096;2023-09-30T13:45:36;20.10;;;2.83;;
73550;SDS011;61816;53.582;10.096;2023-09-30T13:48:02;15.57;;;3.65;;
73550;SDS011;61816;53.582;10.096;2023-09-30T13:50:28;19.50;;;3.33;;
73550;SDS011;61816;53.582;10.096;2023-09-30T13:52:53;34.08;;;3.75;;
73550;SDS011;61816;53.582;10.096;2023-09-30T13:55:19;10.32;;;2.60;;
73550;SDS011;61816;53.582;10.096;2023-09-30T13:57:45;12.70;;;2.72;;
73550;SDS011;61816;53.582;10.096;2023-09-30T14:00:11;14.40;;;3.05;;
73550;SDS011;61816;53.582;10.096;2023-09-30T14:02:37;11.05;;;2.90;;
73550;SDS011;61816;53.582;10.096;2023-09-30T14:05:03;13.73;;;2.63;;
73550;SDS011;61816;53.582;10.096;2023-09-30T14:07:29;18.08;;;3.22;;
73550;SDS011;61816;53.582;10.096;2023-09-30T14:09:55;13.05;;;3.20;;
73550;SDS011;61816;53.582;10.096;2023-09-30T14:12:20;14.32;;;3.25;;
73550;SDS011;61816;53.582;10.096;2023-09-30T14:14:46;14.85;;;3.53;;
73550;SDS011;61816;53.582;10.096;2023-09-30T14:17:12;13.82;;;2.67;;
73550;SDS011;61816;53.582;10.096;2023-09-30T14:19:39;14.70;;;2.58;;
73550;SDS011;61816;53.582;10.096;2023-09-30T14:22:05;12.15;;;2.60;;
73550;SDS011;61816;53.582;10.096;2023-09-30T14:24:33;11.27;;;2.45;;
73550;SDS011;61816;53.582;10.096;2023-09-30T14:27:00;12.80;;;3.25;;
73550;SDS011;61816;53.582;10.096;2023-09-30T14:29:25;12.95;;;3.30;;
73550;SDS011;61816;53.582;10.096;2023-09-30T14:31:51;13.52;;;2.72;;
73550;SDS011;61816;53.582;10.096;2023-09-30T14:34:17;13.98;;;3.88;;
73550;SDS011;61816;53.582;10.096;2023-09-30T14:36:43;13.82;;;3.17;;
73550;SDS011;61816;53.582;10.096;2023-09-30T14:39:08;15.57;;;3.55;;
73550;SDS011;61816;53.582;10.096;2023-09-30T14:41:34;26.00;;;3.78;;
73550;SDS011;61816;53.582;10.096;2023-09-30T14:44:00;20.67;;;3.92;;